createdAt,value
2023-04-27T00:01:49.637Z,101823.22
2023-04-27T00:04:19.293Z,101821.53
2023-04-27T00:06:47.287Z,101821.53
2023-04-27T00:09:15.200Z,101821.53
2023-04-27T00:11:43.580Z,101833.91
2023-04-27T00:14:11.507Z,101835.59
2023-04-27T00:16:39.421Z,101833.75
2023-04-27T00:19:09.005Z,101831.97
2023-04-27T00:21:38.131Z,101833.59
2023-04-27T00:24:06.457Z,101829.06
2023-04-27T00:26:34.208Z,101831.63
2023-04-27T00:29:01.993Z,101834.19
2023-04-27T00:31:29.945Z,101840.28
2023-04-27T00:33:57.730Z,101833.09
2023-04-27T00:36:25.492Z,101848.09
2023-04-27T00:38:54.720Z,101839.09
2023-04-27T00:41:23.081Z,101848.72
2023-04-27T00:43:50.861Z,101845.91
2023-04-27T00:46:19.718Z,101851.19
2023-04-27T00:48:47.995Z,101841.44
2023-04-27T00:51:16.525Z,101844.03
2023-04-27T00:53:44.878Z,101847.59
2023-04-27T00:56:14.202Z,101855.53
2023-04-27T00:58:42.031Z,101857.19
2023-04-27T01:01:12.007Z,101851.75
2023-04-27T01:03:40.104Z,101849.78
2023-04-27T01:06:08.594Z,101851.28
2023-04-27T01:08:36.585Z,101857.47
2023-04-27T01:11:04.457Z,101855.63
2023-04-27T01:13:33.606Z,101845.97
2023-04-27T01:16:01.399Z,101847.69
2023-04-27T01:18:29.137Z,101853.94
2023-04-27T01:20:57.077Z,101854.78
2023-04-27T01:23:26.316Z,101851.31
2023-04-27T01:25:54.053Z,101854.81
2023-04-27T01:28:21.898Z,101869.81
2023-04-27T01:30:49.837Z,101867.91
2023-04-27T01:33:17.661Z,101867.78
2023-04-27T01:35:45.473Z,101858.69
2023-04-27T01:38:13.481Z,101862.31
2023-04-27T01:40:42.771Z,101859.72
2023-04-27T01:43:10.512Z,101859.66
2023-04-27T01:45:38.228Z,101852.59
2023-04-27T01:48:06.294Z,101861.47
2023-04-27T01:50:34.118Z,101864.91
2023-04-27T01:53:01.992Z,101869.69
2023-04-27T01:55:29.850Z,101875.97
2023-04-27T01:57:59.067Z,101872.25
2023-04-27T02:00:27.294Z,101879.09
2023-04-27T02:02:57.374Z,101879.78
2023-04-27T02:05:25.481Z,101871.19
2023-04-27T02:07:53.314Z,101872.66
2023-04-27T02:10:22.257Z,101871.00
2023-04-27T02:12:50.008Z,101883.50
2023-04-27T02:15:19.423Z,101880.09
2023-04-27T02:17:47.300Z,101878.38
2023-04-27T02:20:15.249Z,101881.81
2023-04-27T02:22:44.526Z,101873.69
2023-04-27T02:25:13.545Z,101870.13
2023-04-27T02:27:42.485Z,101870.72
2023-04-27T02:30:12.645Z,101865.22
2023-04-27T02:32:42.500Z,101867.78
2023-04-27T02:35:11.055Z,101866.88
2023-04-27T02:37:38.848Z,101870.34
2023-04-27T02:40:08.362Z,101870.38
2023-04-27T02:42:38.162Z,101866.88
2023-04-27T02:45:07.960Z,101872.88
2023-04-27T02:47:35.868Z,101871.22
2023-04-27T02:50:05.877Z,101867.81
2023-04-27T02:52:33.606Z,101863.41
2023-04-27T02:55:02.131Z,101863.44
2023-04-27T02:57:30.219Z,101857.25
2023-04-27T02:59:58.094Z,101857.22
2023-04-27T03:02:25.909Z,101852.72
2023-04-27T03:04:57.013Z,101846.47
2023-04-27T03:07:26.178Z,101847.38
2023-04-27T03:09:53.983Z,101840.22
2023-04-27T03:12:21.701Z,101839.25
2023-04-27T03:14:49.426Z,101840.06
2023-04-27T03:20:10.343Z,101841.31
2023-04-27T03:22:39.554Z,101844.78
2023-04-27T03:25:08.378Z,101835.97
2023-04-27T03:27:36.477Z,101844.78
2023-04-27T03:30:04.632Z,101849.91
2023-04-27T03:32:32.470Z,101845.28
2023-04-27T03:35:00.280Z,101848.81
2023-04-27T03:37:28.124Z,101854.16
2023-04-27T03:39:57.212Z,101852.44
2023-04-27T03:42:27.673Z,101855.84
2023-04-27T03:45:06.633Z,101849.66
2023-04-27T03:47:34.480Z,101856.53
2023-04-27T03:50:02.283Z,101860.88
2023-04-27T03:52:30.195Z,101860.13
2023-04-27T03:54:59.403Z,101856.63
2023-04-27T03:57:27.138Z,101865.41
2023-04-27T03:59:54.857Z,101861.84
2023-04-27T04:02:23.454Z,101871.50
2023-04-27T04:04:51.355Z,101875.88
2023-04-27T04:07:19.180Z,101885.63
2023-04-27T04:09:46.879Z,101880.38
2023-04-27T04:12:16.007Z,101873.22
2023-04-27T04:14:43.994Z,101883.03
2023-04-27T04:17:11.988Z,101887.41
2023-04-27T04:19:39.685Z,101885.59
2023-04-27T04:22:07.335Z,101885.63
2023-04-27T04:24:35.072Z,101889.06
2023-04-27T04:27:02.832Z,101884.66
2023-04-27T04:29:32.814Z,101887.41
2023-04-27T04:32:00.734Z,101881.31
2023-04-27T04:34:29.230Z,101876.09
2023-04-27T04:36:57.823Z,101881.41
2023-04-27T04:39:27.223Z,101885.00
2023-04-27T04:41:55.212Z,101884.25
2023-04-27T04:44:23.012Z,101889.63
2023-04-27T04:46:52.364Z,101882.59
2023-04-27T04:49:20.122Z,101887.94
2023-04-27T04:51:47.889Z,101891.56
2023-04-27T04:54:15.673Z,101885.28
2023-04-27T04:56:43.873Z,101894.25
2023-04-27T04:59:11.785Z,101889.88
2023-04-27T05:01:39.724Z,101896.09
2023-04-27T05:04:09.275Z,101898.97
2023-04-27T05:06:37.596Z,101897.50
2023-04-27T05:09:06.569Z,101904.94
2023-04-27T05:11:34.447Z,101903.47
2023-04-27T05:14:03.317Z,101908.13
2023-04-27T05:16:31.891Z,101908.34
2023-04-27T05:18:59.995Z,101915.63
2023-04-27T05:21:30.388Z,101915.91
2023-04-27T05:24:00.130Z,101918.72
2023-04-27T05:26:29.236Z,101917.13
2023-04-27T05:28:57.160Z,101921.72
2023-04-27T05:31:25.425Z,101930.75
2023-04-27T05:33:53.404Z,101924.66
2023-04-27T05:36:21.587Z,101929.22
2023-04-27T05:38:51.734Z,101933.78
2023-04-27T05:41:19.623Z,101932.22
2023-04-27T05:43:47.502Z,101929.75
2023-04-27T05:50:31.639Z,101923.34
2023-04-27T05:53:06.412Z,101935.09
2023-04-27T05:55:36.115Z,101931.81
2023-04-27T05:58:07.812Z,101935.53
2023-04-27T06:00:41.153Z,101938.38
2023-04-27T06:03:09.435Z,101944.63
2023-04-27T06:05:37.613Z,101948.31
2023-04-27T06:08:06.264Z,101942.25
2023-04-27T06:10:37.000Z,101942.41
2023-04-27T06:13:05.280Z,101949.69
2023-04-27T06:15:34.311Z,101940.84
2023-04-27T06:18:02.520Z,101935.66
2023-04-27T06:20:30.548Z,101932.22
2023-04-27T06:23:00.239Z,101928.84
2023-04-27T06:25:28.784Z,101932.63
2023-04-27T06:27:59.742Z,101936.22
2023-04-27T06:30:27.911Z,101935.41
2023-04-27T06:32:56.111Z,101939.91
2023-04-27T06:35:24.169Z,101937.22
2023-04-27T06:37:52.859Z,101939.19
2023-04-27T06:40:21.167Z,101929.56
2023-04-27T06:42:51.097Z,101936.75
2023-04-27T06:45:21.149Z,101932.47
2023-04-27T06:47:49.400Z,101930.84
2023-04-27T06:59:30.556Z,101929.78
2023-04-27T07:02:43.322Z,101924.56
2023-04-27T07:05:30.869Z,101921.88
2023-04-27T07:18:17.277Z,101921.31
2023-04-27T07:46:15.026Z,101918.97
2023-04-27T07:48:45.274Z,101926.13
2023-04-27T07:51:17.592Z,101923.53
2023-04-27T07:53:47.777Z,101925.38
2023-04-27T07:56:16.867Z,101922.53
2023-04-27T07:58:46.452Z,101917.22
2023-04-27T08:01:14.511Z,101916.47
2023-04-27T08:03:42.921Z,101914.88
2023-04-27T08:06:11.445Z,101919.53
2023-04-27T08:08:39.741Z,101912.50
2023-04-27T08:11:10.940Z,101922.38
2023-04-27T08:13:39.215Z,101912.66
2023-04-27T08:16:09.224Z,101913.63
2023-04-27T08:18:37.241Z,101904.75
2023-04-27T08:21:05.583Z,101907.47
2023-04-27T08:23:34.036Z,101906.66
2023-04-27T08:26:01.998Z,101906.72
2023-04-27T08:28:30.283Z,101896.94
2023-04-27T08:31:26.114Z,101901.53
2023-04-27T08:33:56.272Z,101897.16
2023-04-27T08:36:25.355Z,101897.25
2023-04-27T08:38:54.301Z,101892.06
2023-04-27T08:41:23.087Z,101897.38
2023-04-27T08:43:53.392Z,101891.22
2023-04-27T08:46:22.352Z,101893.91
2023-04-27T08:48:52.285Z,101893.16
2023-04-27T08:51:22.831Z,101885.19
2023-04-27T08:53:52.551Z,101894.16
2023-04-27T08:56:23.560Z,101893.31
2023-04-27T08:58:51.869Z,101894.28
2023-04-27T09:01:20.312Z,101893.44
2023-04-27T09:03:48.952Z,101892.59
2023-04-27T09:06:17.814Z,101889.97
2023-04-27T09:08:48.883Z,101881.03
2023-04-27T09:11:17.959Z,101885.50
2023-04-27T09:13:46.395Z,101874.78
2023-04-27T09:16:15.375Z,101881.91
2023-04-27T09:18:45.243Z,101866.75
2023-04-27T09:21:23.672Z,101873.06
2023-04-27T09:23:53.891Z,101868.66
2023-04-27T09:26:23.627Z,101867.78
2023-04-27T09:28:53.138Z,101870.53
2023-04-27T09:31:21.826Z,101869.63
2023-04-27T09:33:56.592Z,101867.84
2023-04-27T09:36:25.869Z,101869.63
2023-04-27T09:38:55.764Z,101872.34
2023-04-27T09:41:24.004Z,101861.59
2023-04-27T09:43:54.747Z,101854.47
2023-04-27T09:46:24.300Z,101855.34
2023-04-27T09:48:53.766Z,101860.72
2023-04-27T09:51:21.941Z,101856.28
2023-04-27T09:53:54.169Z,101863.41
2023-04-27T09:56:33.642Z,101851.78
2023-04-27T09:59:16.800Z,101846.41
2023-04-27T10:01:48.223Z,101841.91
2023-04-27T10:04:29.575Z,101847.28
2023-04-27T10:07:02.670Z,101838.31
2023-04-27T10:09:39.063Z,101836.50
2023-04-27T10:12:19.517Z,101827.63
2023-04-27T10:14:55.543Z,101831.19
2023-04-27T10:17:31.539Z,101835.63
2023-04-27T10:20:01.425Z,101818.66
2023-04-27T10:22:40.381Z,101819.53
2023-04-27T10:25:30.768Z,101824.00
2023-04-27T10:28:02.654Z,101817.72
2023-04-27T10:30:34.588Z,101815.94
2023-04-27T10:33:07.291Z,101806.97
2023-04-27T10:35:36.777Z,101810.53
2023-04-27T10:38:08.932Z,101809.59
2023-04-27T10:40:37.405Z,101811.31
2023-04-27T10:43:14.643Z,101806.84
2023-04-27T10:45:43.515Z,101806.84
2023-04-27T10:48:14.623Z,101807.69
2023-04-27T10:50:44.647Z,101806.75
2023-04-27T10:53:13.241Z,101796.81
2023-04-27T10:55:41.164Z,101805.66
2023-04-27T10:58:09.053Z,101811.88
2023-04-27T11:00:42.244Z,101798.44
2023-04-27T11:03:17.027Z,101798.34
2023-04-27T11:05:46.288Z,101799.19
2023-04-27T11:08:16.272Z,101793.75
2023-04-27T11:10:46.337Z,101790.13
2023-04-27T11:13:15.940Z,101789.13
2023-04-27T11:15:47.610Z,101792.63
2023-04-27T11:18:17.294Z,101784.56
2023-04-27T11:20:46.530Z,101790.06
2023-04-27T11:23:25.417Z,101789.19
2023-04-27T11:25:53.427Z,101801.72
2023-04-27T11:28:22.547Z,101784.69
2023-04-27T11:30:59.029Z,101790.06
2023-04-27T11:33:27.229Z,101787.41
2023-04-27T11:35:56.671Z,101776.69
2023-04-27T11:38:24.873Z,101776.66
2023-04-27T11:41:04.610Z,101771.22
2023-04-27T11:43:33.462Z,101768.38
2023-04-27T11:46:06.183Z,101772.84
2023-04-27T11:48:34.163Z,101762.91
2023-04-27T11:51:02.085Z,101770.88
2023-04-27T11:53:34.282Z,101769.94
2023-04-27T11:56:05.449Z,101761.91
2023-04-27T11:58:34.751Z,101760.16
2023-04-27T12:01:03.490Z,101747.88
2023-04-27T12:03:33.342Z,101754.16
2023-04-27T12:06:15.850Z,101747.81
2023-04-27T12:08:49.539Z,101748.53
2023-04-27T12:11:17.471Z,101741.19
2023-04-27T12:13:45.508Z,101738.31
2023-04-27T12:16:13.823Z,101739.16
2023-04-27T12:18:44.017Z,101733.78
2023-04-27T12:21:12.347Z,101733.66
2023-04-27T12:23:41.220Z,101725.44
2023-04-27T12:26:09.483Z,101726.16
2023-04-27T12:28:37.680Z,101718.00
2023-04-27T12:31:07.350Z,101726.44
2023-04-27T12:33:35.250Z,101726.72
2023-04-27T12:36:04.969Z,101735.88
2023-04-27T12:38:32.893Z,101720.66
2023-04-27T12:41:03.472Z,101716.81
2023-04-27T12:43:31.537Z,101718.34
2023-04-27T12:45:59.507Z,101722.63
2023-04-27T12:48:27.641Z,101717.16
2023-04-27T12:50:57.894Z,101703.56
2023-04-27T12:53:27.278Z,101708.88
2023-04-27T12:55:55.893Z,101700.06
2023-04-27T12:58:25.728Z,101708.16
2023-04-27T13:00:53.506Z,101707.44
2023-04-27T13:03:21.534Z,101701.00
2023-04-27T13:05:49.453Z,101711.53
2023-04-27T13:08:17.389Z,101716.78
2023-04-27T13:10:47.283Z,101707.63
2023-04-27T13:13:15.677Z,101698.47
2023-04-27T13:15:43.788Z,101705.53
2023-04-27T13:18:15.241Z,101711.00
2023-04-27T13:20:44.188Z,101706.69
2023-04-27T13:23:12.527Z,101707.81
2023-04-27T13:25:40.431Z,101700.69
2023-04-27T13:28:10.123Z,101705.16
2023-04-27T13:30:38.238Z,101693.25
2023-04-27T13:33:18.951Z,101686.75
2023-04-27T13:35:50.653Z,101681.19
2023-04-27T13:38:18.883Z,101676.50
2023-04-27T13:40:47.106Z,101684.56
2023-04-27T13:43:18.574Z,101680.88
2023-04-27T13:45:47.368Z,101679.06
2023-04-27T13:48:15.317Z,101676.47
2023-04-27T13:50:43.220Z,101680.34
2023-04-27T13:53:13.078Z,101671.53
2023-04-27T13:55:41.774Z,101664.53
2023-04-27T13:58:10.826Z,101667.28
2023-04-27T14:00:40.315Z,101669.78
2023-04-27T14:03:09.643Z,101673.00
2023-04-27T14:05:37.544Z,101670.34
2023-04-27T14:08:07.504Z,101665.09
2023-04-27T14:10:37.615Z,101661.31
2023-04-27T14:13:06.021Z,101648.41
2023-04-27T14:15:37.177Z,101657.16
2023-04-27T14:18:08.228Z,101650.84
2023-04-27T14:20:36.535Z,101644.72
2023-04-27T14:23:05.527Z,101636.84
2023-04-27T14:25:34.882Z,101634.03
2023-04-27T14:28:05.675Z,101626.56
2023-04-27T14:30:34.027Z,101631.22
2023-04-27T14:33:02.542Z,101632.13
2023-04-27T14:35:32.265Z,101633.75
2023-04-27T14:38:06.901Z,101624.72
2023-04-27T14:41:08.791Z,101627.06
2023-04-27T14:43:43.031Z,101610.78
2023-04-27T14:46:20.302Z,101607.16
2023-04-27T14:48:49.245Z,101603.31
2023-04-27T14:51:19.261Z,101600.41
2023-04-27T14:53:49.473Z,101602.94
2023-04-27T14:56:19.365Z,101592.13
2023-04-27T14:58:47.370Z,101591.44
2023-04-27T15:01:15.576Z,101594.41
2023-04-27T15:03:43.910Z,101589.00
2023-04-27T15:06:12.449Z,101585.56
2023-04-27T15:08:42.395Z,101582.88
2023-04-27T15:11:12.879Z,101592.91
2023-04-27T15:13:41.244Z,101598.19
2023-04-27T15:16:09.463Z,101582.94
2023-04-27T15:18:38.099Z,101591.91
2023-04-27T15:21:09.566Z,101589.25
2023-04-27T15:23:38.095Z,101577.53
2023-04-27T15:26:07.626Z,101579.25
2023-04-27T15:28:36.445Z,101574.72
2023-04-27T15:31:04.692Z,101581.97
2023-04-27T15:33:32.835Z,101565.81
2023-04-27T15:36:00.908Z,101575.63
2023-04-27T15:38:29.117Z,101574.66
2023-04-27T15:40:57.211Z,101571.34
2023-04-27T15:43:26.870Z,101573.28
2023-04-27T15:45:55.917Z,101572.47
2023-04-27T15:48:24.086Z,101560.63
2023-04-27T15:50:52.210Z,101568.75
2023-04-27T15:53:20.441Z,101560.91
2023-04-27T15:55:48.403Z,101564.66
2023-04-27T15:58:16.924Z,101563.22
2023-04-27T16:00:47.937Z,101568.72
2023-04-27T16:03:16.507Z,101559.88
2023-04-27T16:05:44.641Z,101547.19
2023-04-27T16:08:12.700Z,101546.19
2023-04-27T16:10:41.128Z,101542.31
2023-04-27T16:13:09.656Z,101540.56
2023-04-27T16:15:37.849Z,101539.22
2023-04-27T16:18:07.504Z,101534.03
2023-04-27T16:20:36.573Z,101537.63
2023-04-27T16:23:05.352Z,101527.13
2023-04-27T16:25:33.289Z,101529.00
2023-04-27T16:28:01.495Z,101527.22
2023-04-27T16:30:29.544Z,101525.56
2023-04-27T16:32:57.542Z,101528.97
2023-04-27T16:35:29.286Z,101526.19
2023-04-27T16:37:59.734Z,101515.56
2023-04-27T16:40:28.179Z,101507.34
2023-04-27T16:42:56.202Z,101512.72
2023-04-27T16:45:24.842Z,101514.69
2023-04-27T16:47:53.523Z,101509.56
2023-04-27T16:50:25.718Z,101513.56
2023-04-27T16:53:06.580Z,101511.97
2023-04-27T16:55:38.622Z,101512.00
2023-04-27T16:58:07.491Z,101500.53
2023-04-27T17:00:35.693Z,101503.38
2023-04-27T17:03:05.013Z,101503.28
2023-04-27T17:05:33.904Z,101493.41
2023-04-27T17:08:05.504Z,101493.59
2023-04-27T17:10:35.660Z,101492.47
2023-04-27T17:13:05.416Z,101493.38
2023-04-27T17:15:34.024Z,101487.25
2023-04-27T17:18:05.206Z,101474.16
2023-04-27T17:20:43.828Z,101474.09
2023-04-27T17:23:13.579Z,101475.91
2023-04-27T17:25:42.220Z,101478.50
2023-04-27T17:28:11.330Z,101475.72
2023-04-27T17:30:40.522Z,101475.88
2023-04-27T17:33:10.625Z,101474.19
2023-04-27T17:35:39.188Z,101464.41
2023-04-27T17:38:07.420Z,101468.94
2023-04-27T17:40:39.493Z,101472.53
2023-04-27T17:43:10.306Z,101450.19
2023-04-27T17:45:38.798Z,101459.16
2023-04-27T17:48:07.568Z,101454.63
2023-04-27T17:50:36.352Z,101460.84
2023-04-27T17:53:04.303Z,101453.78
2023-04-27T17:55:32.496Z,101448.56
2023-04-27T17:58:03.980Z,101451.34
2023-04-27T18:00:31.950Z,101449.59
2023-04-27T18:03:00.151Z,101449.66
2023-04-27T18:05:29.033Z,101450.66
2023-04-27T18:07:56.928Z,101454.41
2023-04-27T18:10:24.841Z,101448.22
2023-04-27T18:12:52.685Z,101445.72
2023-04-27T18:15:21.807Z,101446.63
2023-04-27T18:17:49.722Z,101454.72
2023-04-27T18:20:17.715Z,101450.28
2023-04-27T18:22:45.559Z,101454.81
2023-04-27T18:25:13.529Z,101460.19
2023-04-27T18:27:41.595Z,101455.81
2023-04-27T18:30:09.768Z,101463.88
2023-04-27T18:32:38.991Z,101466.56
2023-04-27T18:35:07.696Z,101458.53
2023-04-27T18:37:35.397Z,101460.44
2023-04-27T18:40:04.881Z,101460.41
2023-04-27T18:42:32.862Z,101465.78
2023-04-27T18:45:01.835Z,101462.22
2023-04-27T18:47:29.628Z,101457.78
2023-04-27T18:49:58.778Z,101454.28
2023-04-27T18:52:26.490Z,101460.53
2023-04-27T18:54:54.311Z,101452.56
2023-04-27T18:57:22.252Z,101450.75
2023-04-27T18:59:50.016Z,101444.56
2023-04-27T19:02:17.789Z,101448.22
2023-04-27T19:04:53.070Z,101449.13
2023-04-27T19:07:26.300Z,101442.91
2023-04-27T19:09:55.188Z,101443.78
2023-04-27T19:12:24.199Z,101444.72
2023-04-27T19:14:52.246Z,101442.94
2023-04-27T19:17:20.308Z,101449.25
2023-04-27T19:19:48.412Z,101450.13
2023-04-27T19:22:16.110Z,101456.34
2023-04-27T19:24:45.420Z,101453.69
2023-04-27T19:27:14.068Z,101462.69
2023-04-27T19:29:52.933Z,101458.22
2023-04-27T19:32:21.289Z,101453.84
2023-04-27T19:35:35.068Z,101451.13
2023-04-27T19:38:10.068Z,101456.50
2023-04-27T19:40:57.709Z,101460.97
2023-04-27T19:43:25.525Z,101449.38
2023-04-27T19:45:53.730Z,101447.56
2023-04-27T19:48:21.680Z,101446.63
2023-04-27T19:50:49.515Z,101441.25
2023-04-27T19:53:17.377Z,101444.88
2023-04-27T19:56:00.641Z,101438.63
2023-04-27T19:58:28.706Z,101441.31
2023-04-27T20:00:56.528Z,101449.34
2023-04-27T20:03:24.496Z,101449.34
2023-04-27T20:05:53.024Z,101448.50
2023-04-27T20:08:20.997Z,101448.53
2023-04-27T20:10:50.258Z,101437.78
2023-04-27T20:13:18.014Z,101437.78
2023-04-27T20:15:46.668Z,101441.34
2023-04-27T20:18:14.617Z,101427.06
2023-04-27T20:20:42.995Z,101431.56
2023-04-27T20:23:10.868Z,101428.88
2023-04-27T20:25:38.864Z,101421.69
2023-04-27T20:28:07.995Z,101426.16
2023-04-27T20:30:35.749Z,101410.09
2023-04-27T20:33:03.817Z,101410.13
2023-04-27T20:35:32.180Z,101416.41
2023-04-27T20:38:00.480Z,101416.44
2023-04-27T20:40:28.425Z,101414.66
2023-04-27T20:42:56.403Z,101403.06
2023-04-27T20:45:25.707Z,101406.69
2023-04-27T20:47:53.604Z,101401.31
2023-04-27T20:50:21.778Z,101394.19
2023-04-27T20:52:49.555Z,101390.63
2023-04-27T20:55:17.435Z,101396.06
2023-04-27T20:57:45.193Z,101391.59
2023-04-27T21:00:16.961Z,101395.16
2023-04-27T21:02:46.191Z,101390.72
2023-04-27T21:05:13.977Z,101389.84
2023-04-27T21:07:41.727Z,101387.16
2023-04-27T21:10:09.945Z,101377.34
2023-04-27T21:12:37.657Z,101376.41
2023-04-27T21:15:06.003Z,101375.50
2023-04-27T21:17:56.301Z,101369.25
2023-04-27T21:20:25.464Z,101358.59
2023-04-27T21:22:56.812Z,101348.78
2023-04-27T21:25:24.553Z,101352.38
2023-04-27T21:27:52.223Z,101340.78
2023-04-27T21:30:20.006Z,101340.75
2023-04-27T21:32:47.827Z,101334.50
2023-04-27T21:35:15.671Z,101332.75
2023-04-27T21:37:44.729Z,101330.09
2023-04-27T21:40:13.098Z,101321.22
2023-04-27T21:42:40.852Z,101322.97
2023-04-27T21:45:09.838Z,101318.50
2023-04-27T21:47:38.478Z,101315.88
2023-04-27T21:50:08.327Z,101305.16
2023-04-27T21:52:36.089Z,101291.75
2023-04-27T21:55:05.701Z,101288.22
2023-04-27T21:57:33.488Z,101281.97
2023-04-27T22:00:01.727Z,101290.00
2023-04-27T22:02:30.731Z,101271.25
2023-04-27T22:04:59.735Z,101273.03
2023-04-27T22:07:28.328Z,101270.38
2023-04-27T22:09:55.984Z,101265.88
2023-04-27T22:12:25.112Z,101265.00
2023-04-27T22:14:52.726Z,101257.91
2023-04-27T22:17:20.398Z,101264.16
2023-04-27T22:19:48.098Z,101259.69
2023-04-27T22:22:15.890Z,101251.69
2023-04-27T22:24:43.589Z,101250.78
2023-04-27T22:27:11.460Z,101246.34
2023-04-27T22:29:40.606Z,101243.69
2023-04-27T22:32:08.466Z,101241.03
2023-04-27T22:34:37.191Z,101234.78
2023-04-27T22:37:05.004Z,101233.00
2023-04-27T22:39:32.918Z,101236.56
2023-04-27T22:42:00.647Z,101229.50
2023-04-27T22:44:28.354Z,101226.84
2023-04-27T22:46:57.515Z,101221.47
2023-04-27T22:49:25.264Z,101227.78
2023-04-27T22:51:53.973Z,101230.44
2023-04-27T22:54:21.727Z,101229.56
2023-04-27T22:56:49.472Z,101242.03
2023-04-27T22:59:22.547Z,101234.00
2023-04-27T23:01:50.865Z,101232.22
2023-04-27T23:04:20.533Z,101234.00
2023-04-27T23:06:48.972Z,101235.78
2023-04-27T23:09:16.764Z,101234.00
2023-04-27T23:11:44.455Z,101226.03
2023-04-27T23:14:12.155Z,101209.94
2023-04-27T23:16:39.934Z,101209.97
2023-04-27T23:19:07.762Z,101211.72
2023-04-27T23:21:36.857Z,101208.16
2023-04-27T23:24:05.216Z,101205.47
2023-04-27T23:26:32.972Z,101193.88
2023-04-27T23:29:00.668Z,101191.16
2023-04-27T23:31:28.458Z,101198.31
2023-04-27T23:33:56.166Z,101199.22
2023-04-27T23:36:23.956Z,101200.13
2023-04-27T23:38:53.587Z,101186.75
2023-04-27T23:41:21.291Z,101185.88
2023-04-27T23:43:48.994Z,101191.22
2023-04-27T23:46:16.771Z,101184.91
2023-04-27T23:48:44.553Z,101182.28
2023-04-27T23:51:12.260Z,101174.28
2023-04-27T23:53:39.966Z,101188.59
2023-04-27T23:56:17.909Z,101182.34
2023-04-27T23:58:45.662Z,101173.41
